Terminal Aerodrome Forecast
Issued by NWS

Current Version | Previous Version | Text Only | Print | Product List | Glossary On
Versions: 1 2 3 4 5 6 7 8 9 10 11 12 13
255
FTUS44 KTSA 032324
TAFFYV
TAF
KFYV 032324Z 0400/0424 08006KT 4SM -RA BR OVC007
     FM040300 11005KT 2SM -RA BR OVC007
      TEMPO 0406/0409 1SM -RA BR OVC004
     FM040900 14004KT 1SM -RA BR OVC004
     FM041600 VRB03KT 3SM BR OVC007
     FM042100 32006KT P6SM OVC015=

USA.gov is the U.S. government's official web portal to all federal, state and local government web resources and services.